sensor_id;sensor_type;location;lat;lon;timestamp;P1;durP1;ratioP1;P2;durP2;ratioP2
16954;SDS011;8594;52.052;8.354;2023-05-15T00:02:22;9.53;;;5.47;;
16954;SDS011;8594;52.052;8.354;2023-05-15T00:04:48;9.93;;;5.20;;
16954;SDS011;8594;52.052;8.354;2023-05-15T00:07:15;6.47;;;5.60;;
16954;SDS011;8594;52.052;8.354;2023-05-15T00:09:42;7.10;;;5.07;;
16954;SDS011;8594;52.052;8.354;2023-05-15T00:12:09;12.40;;;5.77;;
16954;SDS011;8594;52.052;8.354;2023-05-15T00:14:36;6.20;;;5.00;;
16954;SDS011;8594;52.052;8.354;2023-05-15T00:17:02;9.57;;;5.43;;
16954;SDS011;8594;52.052;8.354;2023-05-15T00:19:31;6.63;;;5.33;;
16954;SDS011;8594;52.052;8.354;2023-05-15T00:21:58;10.57;;;5.50;;
16954;SDS011;8594;52.052;8.354;2023-05-15T00:24:25;8.17;;;5.73;;
16954;SDS011;8594;52.052;8.354;2023-05-15T00:26:51;8.53;;;5.47;;
16954;SDS011;8594;52.052;8.354;2023-05-15T00:29:18;7.43;;;5.40;;
16954;SDS011;8594;52.052;8.354;2023-05-15T00:31:45;8.70;;;5.60;;
16954;SDS011;8594;52.052;8.354;2023-05-15T00:34:12;13.30;;;6.00;;
16954;SDS011;8594;52.052;8.354;2023-05-15T00:36:40;6.73;;;5.53;;
16954;SDS011;8594;52.052;8.354;2023-05-15T00:39:06;7.20;;;5.33;;
16954;SDS011;8594;52.052;8.354;2023-05-15T00:41:33;8.83;;;5.80;;
16954;SDS011;8594;52.052;8.354;2023-05-15T00:44:02;6.93;;;5.67;;
16954;SDS011;8594;52.052;8.354;2023-05-15T00:46:31;7.57;;;6.20;;
16954;SDS011;8594;52.052;8.354;2023-05-15T00:49:01;7.70;;;6.33;;
16954;SDS011;8594;52.052;8.354;2023-05-15T00:51:30;8.70;;;6.10;;
16954;SDS011;8594;52.052;8.354;2023-05-15T00:53:58;7.60;;;5.67;;
16954;SDS011;8594;52.052;8.354;2023-05-15T00:56:25;9.67;;;6.57;;
16954;SDS011;8594;52.052;8.354;2023-05-15T00:58:55;7.30;;;5.80;;
16954;SDS011;8594;52.052;8.354;2023-05-15T01:01:24;7.83;;;6.43;;
16954;SDS011;8594;52.052;8.354;2023-05-15T01:03:52;9.97;;;5.90;;
16954;SDS011;8594;52.052;8.354;2023-05-15T01:06:19;7.33;;;5.60;;
16954;SDS011;8594;52.052;8.354;2023-05-15T01:08:46;8.33;;;5.70;;
16954;SDS011;8594;52.052;8.354;2023-05-15T01:11:16;12.77;;;6.47;;
16954;SDS011;8594;52.052;8.354;2023-05-15T01:13:43;8.40;;;6.33;;
16954;SDS011;8594;52.052;8.354;2023-05-15T01:16:10;10.67;;;5.73;;
16954;SDS011;8594;52.052;8.354;2023-05-15T01:18:37;7.03;;;6.03;;
16954;SDS011;8594;52.052;8.354;2023-05-15T01:24:15;6.80;;;5.90;;
16954;SDS011;8594;52.052;8.354;2023-05-15T01:27:16;8.67;;;6.00;;
16954;SDS011;8594;52.052;8.354;2023-05-15T01:29:50;9.83;;;5.87;;
16954;SDS011;8594;52.052;8.354;2023-05-15T01:32:28;8.00;;;5.80;;
16954;SDS011;8594;52.052;8.354;2023-05-15T01:35:07;8.40;;;5.90;;
16954;SDS011;8594;52.052;8.354;2023-05-15T01:37:39;8.57;;;6.10;;
16954;SDS011;8594;52.052;8.354;2023-05-15T01:40:13;8.77;;;6.20;;
16954;SDS011;8594;52.052;8.354;2023-05-15T01:42:48;8.37;;;6.33;;
16954;SDS011;8594;52.052;8.354;2023-05-15T01:45:22;8.87;;;6.10;;
16954;SDS011;8594;52.052;8.354;2023-05-15T01:47:52;7.90;;;6.00;;
16954;SDS011;8594;52.052;8.354;2023-05-15T01:50:20;8.03;;;6.13;;
16954;SDS011;8594;52.052;8.354;2023-05-15T01:52:49;9.57;;;6.57;;
16954;SDS011;8594;52.052;8.354;2023-05-15T01:55:21;8.17;;;6.53;;
16954;SDS011;8594;52.052;8.354;2023-05-15T01:57:52;7.70;;;6.23;;
16954;SDS011;8594;52.052;8.354;2023-05-15T02:00:21;8.27;;;6.20;;
16954;SDS011;8594;52.052;8.354;2023-05-15T02:02:49;7.97;;;5.73;;
16954;SDS011;8594;52.052;8.354;2023-05-15T02:05:18;8.83;;;6.00;;
16954;SDS011;8594;52.052;8.354;2023-05-15T02:07:45;12.40;;;6.27;;
16954;SDS011;8594;52.052;8.354;2023-05-15T02:10:14;6.47;;;5.57;;
16954;SDS011;8594;52.052;8.354;2023-05-15T02:12:43;9.27;;;5.97;;
16954;SDS011;8594;52.052;8.354;2023-05-15T02:15:12;7.97;;;6.23;;
16954;SDS011;8594;52.052;8.354;2023-05-15T02:17:42;9.17;;;5.83;;
16954;SDS011;8594;52.052;8.354;2023-05-15T02:20:08;8.10;;;6.10;;
16954;SDS011;8594;52.052;8.354;2023-05-15T02:22:36;7.43;;;5.97;;
16954;SDS011;8594;52.052;8.354;2023-05-15T02:25:03;10.17;;;6.63;;
16954;SDS011;8594;52.052;8.354;2023-05-15T02:27:32;9.77;;;6.53;;
16954;SDS011;8594;52.052;8.354;2023-05-15T02:30:12;10.13;;;6.10;;
16954;SDS011;8594;52.052;8.354;2023-05-15T02:33:00;10.83;;;7.17;;
16954;SDS011;8594;52.052;8.354;2023-05-15T02:35:40;8.87;;;6.63;;
16954;SDS011;8594;52.052;8.354;2023-05-15T02:38:14;9.93;;;6.50;;
16954;SDS011;8594;52.052;8.354;2023-05-15T02:40:45;8.60;;;6.00;;
16954;SDS011;8594;52.052;8.354;2023-05-15T02:43:16;9.07;;;6.00;;
16954;SDS011;8594;52.052;8.354;2023-05-15T02:45:45;7.37;;;6.37;;
16954;SDS011;8594;52.052;8.354;2023-05-15T02:48:13;8.57;;;6.30;;
16954;SDS011;8594;52.052;8.354;2023-05-15T02:50:41;9.23;;;6.30;;
16954;SDS011;8594;52.052;8.354;2023-05-15T02:53:08;9.20;;;6.03;;
16954;SDS011;8594;52.052;8.354;2023-05-15T02:55:38;8.90;;;6.37;;
16954;SDS011;8594;52.052;8.354;2023-05-15T02:58:05;10.23;;;5.80;;
16954;SDS011;8594;52.052;8.354;2023-05-15T03:00:32;8.80;;;5.80;;
16954;SDS011;8594;52.052;8.354;2023-05-15T03:03:00;9.63;;;6.43;;
16954;SDS011;8594;52.052;8.354;2023-05-15T03:05:27;10.37;;;6.33;;
16954;SDS011;8594;52.052;8.354;2023-05-15T03:07:54;11.73;;;6.90;;
16954;SDS011;8594;52.052;8.354;2023-05-15T03:10:22;10.30;;;6.13;;
16954;SDS011;8594;52.052;8.354;2023-05-15T03:12:48;10.97;;;6.53;;
16954;SDS011;8594;52.052;8.354;2023-05-15T03:15:15;10.40;;;5.60;;
16954;SDS011;8594;52.052;8.354;2023-05-15T03:17:43;9.10;;;6.17;;
16954;SDS011;8594;52.052;8.354;2023-05-15T03:20:11;10.70;;;6.70;;
16954;SDS011;8594;52.052;8.354;2023-05-15T03:22:39;9.37;;;6.30;;
16954;SDS011;8594;52.052;8.354;2023-05-15T03:25:06;11.43;;;6.23;;
16954;SDS011;8594;52.052;8.354;2023-05-15T03:27:36;7.83;;;6.57;;
16954;SDS011;8594;52.052;8.354;2023-05-15T03:30:03;15.97;;;7.30;;
16954;SDS011;8594;52.052;8.354;2023-05-15T03:32:32;9.00;;;7.13;;
16954;SDS011;8594;52.052;8.354;2023-05-15T03:34:59;20.53;;;8.50;;
16954;SDS011;8594;52.052;8.354;2023-05-15T03:37:27;10.40;;;6.43;;
16954;SDS011;8594;52.052;8.354;2023-05-15T03:39:54;10.00;;;6.87;;
16954;SDS011;8594;52.052;8.354;2023-05-15T03:42:21;8.87;;;6.50;;
16954;SDS011;8594;52.052;8.354;2023-05-15T03:44:49;15.00;;;7.07;;
16954;SDS011;8594;52.052;8.354;2023-05-15T03:47:15;10.47;;;6.57;;
16954;SDS011;8594;52.052;8.354;2023-05-15T03:49:43;7.47;;;5.97;;
16954;SDS011;8594;52.052;8.354;2023-05-15T03:52:11;8.83;;;6.27;;
16954;SDS011;8594;52.052;8.354;2023-05-15T03:54:41;8.57;;;6.30;;
16954;SDS011;8594;52.052;8.354;2023-05-15T03:57:08;13.70;;;7.50;;
16954;SDS011;8594;52.052;8.354;2023-05-15T03:59:35;14.73;;;6.37;;
16954;SDS011;8594;52.052;8.354;2023-05-15T04:02:02;7.77;;;6.40;;
16954;SDS011;8594;52.052;8.354;2023-05-15T04:04:29;12.43;;;6.60;;
16954;SDS011;8594;52.052;8.354;2023-05-15T04:06:56;14.30;;;8.10;;
16954;SDS011;8594;52.052;8.354;2023-05-15T04:09:23;8.67;;;6.83;;
16954;SDS011;8594;52.052;8.354;2023-05-15T04:11:51;18.63;;;7.37;;
16954;SDS011;8594;52.052;8.354;2023-05-15T04:14:18;11.57;;;7.60;;
16954;SDS011;8594;52.052;8.354;2023-05-15T04:16:45;12.40;;;7.00;;
16954;SDS011;8594;52.052;8.354;2023-05-15T04:19:11;16.97;;;6.87;;
16954;SDS011;8594;52.052;8.354;2023-05-15T04:21:38;11.70;;;7.40;;
16954;SDS011;8594;52.052;8.354;2023-05-15T04:24:06;11.00;;;7.40;;
16954;SDS011;8594;52.052;8.354;2023-05-15T04:26:33;12.87;;;7.10;;
16954;SDS011;8594;52.052;8.354;2023-05-15T04:29:01;13.73;;;7.20;;
16954;SDS011;8594;52.052;8.354;2023-05-15T04:31:28;19.53;;;7.60;;
16954;SDS011;8594;52.052;8.354;2023-05-15T04:33:56;19.20;;;8.20;;
16954;SDS011;8594;52.052;8.354;2023-05-15T04:36:23;11.70;;;6.77;;
16954;SDS011;8594;52.052;8.354;2023-05-15T04:38:50;10.77;;;7.50;;
16954;SDS011;8594;52.052;8.354;2023-05-15T04:41:17;10.07;;;6.80;;
16954;SDS011;8594;52.052;8.354;2023-05-15T04:43:44;12.47;;;7.40;;
16954;SDS011;8594;52.052;8.354;2023-05-15T04:46:12;9.43;;;6.43;;
16954;SDS011;8594;52.052;8.354;2023-05-15T04:48:38;14.47;;;7.23;;
16954;SDS011;8594;52.052;8.354;2023-05-15T04:51:05;8.37;;;6.30;;
16954;SDS011;8594;52.052;8.354;2023-05-15T04:53:32;9.77;;;6.83;;
16954;SDS011;8594;52.052;8.354;2023-05-15T04:55:59;11.60;;;6.90;;
16954;SDS011;8594;52.052;8.354;2023-05-15T04:58:26;16.97;;;7.30;;
16954;SDS011;8594;52.052;8.354;2023-05-15T05:00:52;10.63;;;6.60;;
16954;SDS011;8594;52.052;8.354;2023-05-15T05:03:20;9.97;;;7.10;;
16954;SDS011;8594;52.052;8.354;2023-05-15T05:05:47;11.80;;;6.83;;
16954;SDS011;8594;52.052;8.354;2023-05-15T05:08:14;9.27;;;7.13;;
16954;SDS011;8594;52.052;8.354;2023-05-15T05:10:41;8.43;;;6.63;;
16954;SDS011;8594;52.052;8.354;2023-05-15T05:13:07;11.97;;;6.77;;
16954;SDS011;8594;52.052;8.354;2023-05-15T05:15:34;10.10;;;6.77;;
16954;SDS011;8594;52.052;8.354;2023-05-15T05:18:01;9.97;;;6.93;;
16954;SDS011;8594;52.052;8.354;2023-05-15T05:20:29;12.90;;;7.20;;
16954;SDS011;8594;52.052;8.354;2023-05-15T05:22:56;11.93;;;7.33;;
16954;SDS011;8594;52.052;8.354;2023-05-15T05:25:23;12.73;;;6.90;;
16954;SDS011;8594;52.052;8.354;2023-05-15T05:27:50;9.70;;;7.53;;
16954;SDS011;8594;52.052;8.354;2023-05-15T05:30:17;16.10;;;7.77;;
16954;SDS011;8594;52.052;8.354;2023-05-15T05:32:44;11.53;;;6.90;;
16954;SDS011;8594;52.052;8.354;2023-05-15T05:35:10;14.40;;;8.00;;
16954;SDS011;8594;52.052;8.354;2023-05-15T05:37:39;11.40;;;7.07;;
16954;SDS011;8594;52.052;8.354;2023-05-15T05:40:06;10.97;;;7.50;;
16954;SDS011;8594;52.052;8.354;2023-05-15T05:42:34;12.03;;;7.70;;
16954;SDS011;8594;52.052;8.354;2023-05-15T05:45:01;13.63;;;8.83;;
16954;SDS011;8594;52.052;8.354;2023-05-15T05:47:28;15.07;;;9.10;;
16954;SDS011;8594;52.052;8.354;2023-05-15T05:49:55;14.97;;;8.83;;
16954;SDS011;8594;52.052;8.354;2023-05-15T05:52:21;13.53;;;8.80;;
16954;SDS011;8594;52.052;8.354;2023-05-15T05:54:51;9.60;;;7.90;;
16954;SDS011;8594;52.052;8.354;2023-05-15T05:57:17;12.17;;;8.37;;
16954;SDS011;8594;52.052;8.354;2023-05-15T05:59:44;13.77;;;9.07;;
16954;SDS011;8594;52.052;8.354;2023-05-15T06:02:11;13.77;;;9.60;;
16954;SDS011;8594;52.052;8.354;2023-05-15T06:04:38;13.97;;;9.50;;
16954;SDS011;8594;52.052;8.354;2023-05-15T06:07:05;11.40;;;8.90;;
16954;SDS011;8594;52.052;8.354;2023-05-15T06:09:32;12.10;;;9.13;;
16954;SDS011;8594;52.052;8.354;2023-05-15T06:12:01;11.23;;;8.90;;
16954;SDS011;8594;52.052;8.354;2023-05-15T06:14:29;10.67;;;9.17;;
16954;SDS011;8594;52.052;8.354;2023-05-15T06:16:56;13.83;;;9.27;;
16954;SDS011;8594;52.052;8.354;2023-05-15T06:19:23;8.97;;;7.87;;
16954;SDS011;8594;52.052;8.354;2023-05-15T06:21:49;13.53;;;8.67;;
16954;SDS011;8594;52.052;8.354;2023-05-15T06:24:16;11.57;;;8.77;;
16954;SDS011;8594;52.052;8.354;2023-05-15T06:26:43;9.60;;;8.60;;
16954;SDS011;8594;52.052;8.354;2023-05-15T06:29:11;9.80;;;8.57;;
16954;SDS011;8594;52.052;8.354;2023-05-15T06:31:38;9.40;;;8.20;;
16954;SDS011;8594;52.052;8.354;2023-05-15T06:34:05;14.90;;;9.37;;
16954;SDS011;8594;52.052;8.354;2023-05-15T06:36:32;16.13;;;9.93;;
16954;SDS011;8594;52.052;8.354;2023-05-15T06:38:59;12.17;;;8.53;;
16954;SDS011;8594;52.052;8.354;2023-05-15T06:41:26;10.57;;;8.33;;
16954;SDS011;8594;52.052;8.354;2023-05-15T06:43:52;10.93;;;8.13;;
16954;SDS011;8594;52.052;8.354;2023-05-15T06:46:21;13.03;;;7.97;;
16954;SDS011;8594;52.052;8.354;2023-05-15T06:48:47;11.63;;;8.70;;
16954;SDS011;8594;52.052;8.354;2023-05-15T06:51:14;12.63;;;8.03;;
16954;SDS011;8594;52.052;8.354;2023-05-15T06:53:41;13.47;;;8.80;;
16954;SDS011;8594;52.052;8.354;2023-05-15T06:56:08;10.63;;;8.47;;
16954;SDS011;8594;52.052;8.354;2023-05-15T06:58:35;13.73;;;9.97;;
16954;SDS011;8594;52.052;8.354;2023-05-15T07:01:02;14.57;;;9.60;;
16954;SDS011;8594;52.052;8.354;2023-05-15T07:03:31;12.63;;;9.37;;
16954;SDS011;8594;52.052;8.354;2023-05-15T07:05:58;9.77;;;8.63;;
16954;SDS011;8594;52.052;8.354;2023-05-15T07:08:25;12.40;;;9.47;;
16954;SDS011;8594;52.052;8.354;2023-05-15T07:10:52;9.93;;;8.57;;
16954;SDS011;8594;52.052;8.354;2023-05-15T07:13:19;10.37;;;8.60;;
16954;SDS011;8594;52.052;8.354;2023-05-15T07:15:46;10.97;;;8.50;;
16954;SDS011;8594;52.052;8.354;2023-05-15T07:18:13;8.97;;;8.07;;
16954;SDS011;8594;52.052;8.354;2023-05-15T07:20:41;10.57;;;8.47;;
16954;SDS011;8594;52.052;8.354;2023-05-15T07:23:08;10.33;;;9.03;;
16954;SDS011;8594;52.052;8.354;2023-05-15T07:25:35;14.67;;;9.23;;
16954;SDS011;8594;52.052;8.354;2023-05-15T07:28:02;9.43;;;8.23;;
16954;SDS011;8594;52.052;8.354;2023-05-15T07:30:29;11.30;;;9.67;;
16954;SDS011;8594;52.052;8.354;2023-05-15T07:32:56;10.20;;;8.80;;
16954;SDS011;8594;52.052;8.354;2023-05-15T07:35:22;11.40;;;8.90;;
16954;SDS011;8594;52.052;8.354;2023-05-15T07:37:52;11.53;;;9.17;;
16954;SDS011;8594;52.052;8.354;2023-05-15T07:40:18;12.83;;;8.97;;
16954;SDS011;8594;52.052;8.354;2023-05-15T07:42:45;13.53;;;9.87;;
16954;SDS011;8594;52.052;8.354;2023-05-15T07:45:12;14.30;;;9.47;;
16954;SDS011;8594;52.052;8.354;2023-05-15T07:47:40;11.27;;;9.27;;
16954;SDS011;8594;52.052;8.354;2023-05-15T07:50:10;14.37;;;10.93;;
16954;SDS011;8594;52.052;8.354;2023-05-15T07:52:36;11.50;;;10.27;;
16954;SDS011;8594;52.052;8.354;2023-05-15T07:55:05;11.90;;;10.37;;
16954;SDS011;8594;52.052;8.354;2023-05-15T07:57:33;14.07;;;11.43;;
16954;SDS011;8594;52.052;8.354;2023-05-15T08:00:00;16.27;;;11.93;;
16954;SDS011;8594;52.052;8.354;2023-05-15T08:02:34;16.03;;;12.07;;
16954;SDS011;8594;52.052;8.354;2023-05-15T08:05:01;16.10;;;12.77;;
16954;SDS011;8594;52.052;8.354;2023-05-15T08:07:29;15.47;;;13.37;;
16954;SDS011;8594;52.052;8.354;2023-05-15T08:09:57;18.20;;;12.73;;
16954;SDS011;8594;52.052;8.354;2023-05-15T08:12:25;17.40;;;14.13;;
16954;SDS011;8594;52.052;8.354;2023-05-15T08:14:53;17.57;;;11.90;;
16954;SDS011;8594;52.052;8.354;2023-05-15T08:17:21;14.07;;;12.17;;
16954;SDS011;8594;52.052;8.354;2023-05-15T08:19:49;14.40;;;12.40;;
16954;SDS011;8594;52.052;8.354;2023-05-15T08:22:16;16.00;;;11.87;;
16954;SDS011;8594;52.052;8.354;2023-05-15T08:24:43;15.93;;;12.73;;
16954;SDS011;8594;52.052;8.354;2023-05-15T08:27:10;17.37;;;12.87;;
16954;SDS011;8594;52.052;8.354;2023-05-15T08:29:38;16.57;;;12.80;;
16954;SDS011;8594;52.052;8.354;2023-05-15T08:32:05;15.80;;;12.63;;
16954;SDS011;8594;52.052;8.354;2023-05-15T08:34:33;15.23;;;12.23;;
16954;SDS011;8594;52.052;8.354;2023-05-15T08:37:00;19.17;;;13.50;;
16954;SDS011;8594;52.052;8.354;2023-05-15T08:39:27;19.47;;;12.90;;
16954;SDS011;8594;52.052;8.354;2023-05-15T08:41:55;19.67;;;14.40;;
16954;SDS011;8594;52.052;8.354;2023-05-15T08:44:28;19.30;;;14.63;;
16954;SDS011;8594;52.052;8.354;2023-05-15T08:46:57;18.73;;;15.17;;
16954;SDS011;8594;52.052;8.354;2023-05-15T08:49:26;19.70;;;16.47;;
16954;SDS011;8594;52.052;8.354;2023-05-15T08:51:59;26.00;;;17.57;;
16954;SDS011;8594;52.052;8.354;2023-05-15T08:54:26;25.20;;;17.80;;
16954;SDS011;8594;52.052;8.354;2023-05-15T08:56:54;28.13;;;20.97;;
16954;SDS011;8594;52.052;8.354;2023-05-15T08:59:21;29.10;;;22.70;;
16954;SDS011;8594;52.052;8.354;2023-05-15T09:01:48;31.80;;;23.20;;
16954;SDS011;8594;52.052;8.354;2023-05-15T09:04:17;31.90;;;24.13;;
16954;SDS011;8594;52.052;8.354;2023-05-15T09:06:44;35.07;;;25.23;;
16954;SDS011;8594;52.052;8.354;2023-05-15T09:09:13;34.27;;;24.47;;
16954;SDS011;8594;52.052;8.354;2023-05-15T09:11:41;35.27;;;25.70;;
16954;SDS011;8594;52.052;8.354;2023-05-15T09:14:10;34.93;;;24.63;;
16954;SDS011;8594;52.052;8.354;2023-05-15T09:16:37;35.53;;;25.37;;
16954;SDS011;8594;52.052;8.354;2023-05-15T09:19:05;36.50;;;25.20;;
16954;SDS011;8594;52.052;8.354;2023-05-15T09:21:33;33.20;;;22.90;;
16954;SDS011;8594;52.052;8.354;2023-05-15T09:24:17;33.03;;;22.73;;
16954;SDS011;8594;52.052;8.354;2023-05-15T09:26:59;35.63;;;23.50;;
16954;SDS011;8594;52.052;8.354;2023-05-15T09:29:28;38.80;;;23.93;;
16954;SDS011;8594;52.052;8.354;2023-05-15T09:31:56;35.47;;;24.30;;
16954;SDS011;8594;52.052;8.354;2023-05-15T09:34:29;38.87;;;26.53;;
16954;SDS011;8594;52.052;8.354;2023-05-15T09:37:01;42.47;;;28.73;;
16954;SDS011;8594;52.052;8.354;2023-05-15T09:39:29;42.33;;;29.43;;
16954;SDS011;8594;52.052;8.354;2023-05-15T09:42:04;40.50;;;27.97;;
16954;SDS011;8594;52.052;8.354;2023-05-15T09:44:32;39.20;;;27.70;;
16954;SDS011;8594;52.052;8.354;2023-05-15T09:46:59;40.80;;;27.30;;
16954;SDS011;8594;52.052;8.354;2023-05-15T09:49:27;37.13;;;25.93;;
16954;SDS011;8594;52.052;8.354;2023-05-15T09:51:57;36.47;;;25.87;;
16954;SDS011;8594;52.052;8.354;2023-05-15T09:54:26;39.73;;;25.20;;
16954;SDS011;8594;52.052;8.354;2023-05-15T09:56:54;36.27;;;25.40;;
16954;SDS011;8594;52.052;8.354;2023-05-15T09:59:21;36.40;;;24.73;;
16954;SDS011;8594;52.052;8.354;2023-05-15T10:01:49;37.67;;;26.27;;
16954;SDS011;8594;52.052;8.354;2023-05-15T10:04:16;36.20;;;24.13;;
16954;SDS011;8594;52.052;8.354;2023-05-15T10:06:44;35.57;;;24.77;;
16954;SDS011;8594;52.052;8.354;2023-05-15T10:09:14;37.50;;;26.63;;
16954;SDS011;8594;52.052;8.354;2023-05-15T10:11:41;39.50;;;26.20;;
16954;SDS011;8594;52.052;8.354;2023-05-15T10:14:11;35.83;;;26.40;;
16954;SDS011;8594;52.052;8.354;2023-05-15T10:16:39;36.43;;;26.53;;
16954;SDS011;8594;52.052;8.354;2023-05-15T10:19:07;41.97;;;26.63;;
16954;SDS011;8594;52.052;8.354;2023-05-15T10:21:35;42.20;;;28.00;;
16954;SDS011;8594;52.052;8.354;2023-05-15T10:24:04;43.23;;;28.57;;
16954;SDS011;8594;52.052;8.354;2023-05-15T10:26:35;43.63;;;28.67;;
16954;SDS011;8594;52.052;8.354;2023-05-15T10:29:04;43.60;;;29.83;;
16954;SDS011;8594;52.052;8.354;2023-05-15T10:31:34;43.67;;;28.83;;
16954;SDS011;8594;52.052;8.354;2023-05-15T10:34:01;43.77;;;28.53;;
16954;SDS011;8594;52.052;8.354;2023-05-15T10:36:28;40.87;;;27.70;;
16954;SDS011;8594;52.052;8.354;2023-05-15T10:38:57;45.73;;;28.50;;
16954;SDS011;8594;52.052;8.354;2023-05-15T10:41:27;46.17;;;28.70;;
16954;SDS011;8594;52.052;8.354;2023-05-15T10:43:58;43.17;;;28.20;;
16954;SDS011;8594;52.052;8.354;2023-05-15T10:46:26;39.93;;;26.33;;
16954;SDS011;8594;52.052;8.354;2023-05-15T10:48:57;40.23;;;27.30;;
16954;SDS011;8594;52.052;8.354;2023-05-15T10:51:27;41.80;;;26.17;;
16954;SDS011;8594;52.052;8.354;2023-05-15T10:53:56;38.57;;;26.27;;
16954;SDS011;8594;52.052;8.354;2023-05-15T10:56:25;42.67;;;27.20;;
16954;SDS011;8594;52.052;8.354;2023-05-15T10:58:54;40.70;;;26.47;;
16954;SDS011;8594;52.052;8.354;2023-05-15T11:01:26;38.30;;;25.97;;
16954;SDS011;8594;52.052;8.354;2023-05-15T11:04:05;40.53;;;26.07;;
16954;SDS011;8594;52.052;8.354;2023-05-15T11:06:35;37.27;;;24.90;;
16954;SDS011;8594;52.052;8.354;2023-05-15T11:12:02;41.37;;;25.73;;
16954;SDS011;8594;52.052;8.354;2023-05-15T11:14:31;43.30;;;28.37;;
16954;SDS011;8594;52.052;8.354;2023-05-15T11:17:03;40.77;;;27.50;;
16954;SDS011;8594;52.052;8.354;2023-05-15T11:19:33;42.60;;;26.67;;
16954;SDS011;8594;52.052;8.354;2023-05-15T11:22:14;44.17;;;27.00;;
16954;SDS011;8594;52.052;8.354;2023-05-15T11:24:47;34.23;;;22.77;;
16954;SDS011;8594;52.052;8.354;2023-05-15T11:27:17;32.63;;;22.53;;
16954;SDS011;8594;52.052;8.354;2023-05-15T11:32:44;35.03;;;23.83;;
16954;SDS011;8594;52.052;8.354;2023-05-15T11:35:22;37.10;;;24.70;;
16954;SDS011;8594;52.052;8.354;2023-05-15T11:37:53;32.37;;;22.73;;
16954;SDS011;8594;52.052;8.354;2023-05-15T11:40:23;33.10;;;22.20;;
16954;SDS011;8594;52.052;8.354;2023-05-15T11:43:15;35.47;;;22.20;;
16954;SDS011;8594;52.052;8.354;2023-05-15T11:45:45;33.33;;;22.33;;
16954;SDS011;8594;52.052;8.354;2023-05-15T11:48:16;29.70;;;20.13;;
16954;SDS011;8594;52.052;8.354;2023-05-15T11:50:44;31.67;;;22.37;;
16954;SDS011;8594;52.052;8.354;2023-05-15T11:53:11;35.43;;;23.27;;
16954;SDS011;8594;52.052;8.354;2023-05-15T11:55:39;31.47;;;20.53;;
16954;SDS011;8594;52.052;8.354;2023-05-15T11:58:12;34.07;;;22.50;;
16954;SDS011;8594;52.052;8.354;2023-05-15T12:00:41;29.03;;;20.27;;
16954;SDS011;8594;52.052;8.354;2023-05-15T12:03:15;27.20;;;19.47;;
16954;SDS011;8594;52.052;8.354;2023-05-15T12:05:44;25.30;;;17.33;;
16954;SDS011;8594;52.052;8.354;2023-05-15T12:08:11;34.57;;;22.80;;
16954;SDS011;8594;52.052;8.354;2023-05-15T12:10:39;31.27;;;20.50;;
16954;SDS011;8594;52.052;8.354;2023-05-15T12:13:07;27.67;;;18.77;;
16954;SDS011;8594;52.052;8.354;2023-05-15T12:15:36;25.17;;;18.03;;
16954;SDS011;8594;52.052;8.354;2023-05-15T12:18:04;23.70;;;18.13;;
16954;SDS011;8594;52.052;8.354;2023-05-15T12:20:34;28.70;;;16.17;;
16954;SDS011;8594;52.052;8.354;2023-05-15T12:23:03;32.93;;;19.60;;
16954;SDS011;8594;52.052;8.354;2023-05-15T12:25:32;28.73;;;19.83;;
16954;SDS011;8594;52.052;8.354;2023-05-15T12:28:02;30.47;;;19.83;;
16954;SDS011;8594;52.052;8.354;2023-05-15T12:30:30;32.80;;;22.37;;
16954;SDS011;8594;52.052;8.354;2023-05-15T12:32:58;30.90;;;22.00;;
16954;SDS011;8594;52.052;8.354;2023-05-15T12:35:28;30.70;;;21.67;;
16954;SDS011;8594;52.052;8.354;2023-05-15T12:37:57;32.23;;;21.83;;
16954;SDS011;8594;52.052;8.354;2023-05-15T12:40:24;24.17;;;17.77;;
16954;SDS011;8594;52.052;8.354;2023-05-15T12:42:52;25.20;;;17.33;;
16954;SDS011;8594;52.052;8.354;2023-05-15T12:45:20;27.73;;;19.13;;
16954;SDS011;8594;52.052;8.354;2023-05-15T12:47:49;17.60;;;12.30;;
16954;SDS011;8594;52.052;8.354;2023-05-15T12:50:16;16.23;;;11.07;;
16954;SDS011;8594;52.052;8.354;2023-05-15T12:52:46;15.33;;;9.77;;
16954;SDS011;8594;52.052;8.354;2023-05-15T12:55:21;12.03;;;8.93;;
16954;SDS011;8594;52.052;8.354;2023-05-15T12:57:49;16.43;;;10.83;;
16954;SDS011;8594;52.052;8.354;2023-05-15T13:00:17;16.10;;;11.57;;
16954;SDS011;8594;52.052;8.354;2023-05-15T13:02:47;18.60;;;12.70;;
16954;SDS011;8594;52.052;8.354;2023-05-15T13:05:15;18.00;;;12.57;;
16954;SDS011;8594;52.052;8.354;2023-05-15T13:07:42;14.53;;;9.00;;
16954;SDS011;8594;52.052;8.354;2023-05-15T13:10:10;14.17;;;8.83;;
16954;SDS011;8594;52.052;8.354;2023-05-15T13:12:41;17.53;;;9.37;;
16954;SDS011;8594;52.052;8.354;2023-05-15T13:15:20;12.43;;;9.73;;
16954;SDS011;8594;52.052;8.354;2023-05-15T13:17:51;19.70;;;9.67;;
16954;SDS011;8594;52.052;8.354;2023-05-15T13:20:21;12.87;;;9.33;;
16954;SDS011;8594;52.052;8.354;2023-05-15T13:22:48;13.90;;;9.97;;
16954;SDS011;8594;52.052;8.354;2023-05-15T13:25:16;15.13;;;9.63;;
16954;SDS011;8594;52.052;8.354;2023-05-15T13:27:45;14.60;;;9.13;;
16954;SDS011;8594;52.052;8.354;2023-05-15T13:30:13;14.07;;;9.40;;
16954;SDS011;8594;52.052;8.354;2023-05-15T13:32:42;15.80;;;9.93;;
16954;SDS011;8594;52.052;8.354;2023-05-15T13:35:09;13.10;;;8.77;;
16954;SDS011;8594;52.052;8.354;2023-05-15T13:37:36;11.07;;;7.90;;
16954;SDS011;8594;52.052;8.354;2023-05-15T13:40:06;11.90;;;8.07;;
16954;SDS011;8594;52.052;8.354;2023-05-15T13:42:35;14.47;;;8.60;;
16954;SDS011;8594;52.052;8.354;2023-05-15T13:45:03;16.33;;;9.53;;
16954;SDS011;8594;52.052;8.354;2023-05-15T13:47:32;15.97;;;10.20;;
16954;SDS011;8594;52.052;8.354;2023-05-15T13:49:59;16.03;;;9.30;;
16954;SDS011;8594;52.052;8.354;2023-05-15T13:52:27;17.37;;;11.13;;
16954;SDS011;8594;52.052;8.354;2023-05-15T13:54:54;18.50;;;10.80;;
16954;SDS011;8594;52.052;8.354;2023-05-15T13:57:21;18.07;;;11.90;;
16954;SDS011;8594;52.052;8.354;2023-05-15T13:59:48;23.27;;;12.80;;
16954;SDS011;8594;52.052;8.354;2023-05-15T14:02:16;17.03;;;11.30;;
16954;SDS011;8594;52.052;8.354;2023-05-15T14:04:45;16.13;;;9.73;;
16954;SDS011;8594;52.052;8.354;2023-05-15T14:07:11;17.70;;;9.70;;
16954;SDS011;8594;52.052;8.354;2023-05-15T14:09:38;22.13;;;11.20;;
16954;SDS011;8594;52.052;8.354;2023-05-15T14:12:05;17.67;;;11.77;;
16954;SDS011;8594;52.052;8.354;2023-05-15T14:14:33;22.03;;;11.63;;
16954;SDS011;8594;52.052;8.354;2023-05-15T14:17:00;18.73;;;12.03;;
16954;SDS011;8594;52.052;8.354;2023-05-15T14:19:28;24.33;;;12.13;;
16954;SDS011;8594;52.052;8.354;2023-05-15T14:21:55;16.07;;;11.60;;
16954;SDS011;8594;52.052;8.354;2023-05-15T14:24:22;15.73;;;10.20;;
16954;SDS011;8594;52.052;8.354;2023-05-15T14:26:49;19.13;;;11.80;;
16954;SDS011;8594;52.052;8.354;2023-05-15T14:29:19;15.60;;;11.13;;
16954;SDS011;8594;52.052;8.354;2023-05-15T14:31:45;22.80;;;12.33;;
16954;SDS011;8594;52.052;8.354;2023-05-15T14:34:13;26.03;;;13.50;;
16954;SDS011;8594;52.052;8.354;2023-05-15T14:36:41;19.03;;;12.57;;
16954;SDS011;8594;52.052;8.354;2023-05-15T14:39:08;22.13;;;12.13;;
16954;SDS011;8594;52.052;8.354;2023-05-15T14:41:34;22.93;;;12.10;;
16954;SDS011;8594;52.052;8.354;2023-05-15T14:44:01;18.90;;;11.40;;
16954;SDS011;8594;52.052;8.354;2023-05-15T14:46:28;17.07;;;11.60;;
16954;SDS011;8594;52.052;8.354;2023-05-15T14:48:55;19.83;;;12.50;;
16954;SDS011;8594;52.052;8.354;2023-05-15T14:51:22;16.87;;;11.30;;
16954;SDS011;8594;52.052;8.354;2023-05-15T14:53:50;18.67;;;9.80;;
16954;SDS011;8594;52.052;8.354;2023-05-15T14:56:17;17.47;;;10.80;;
16954;SDS011;8594;52.052;8.354;2023-05-15T14:58:44;24.47;;;18.10;;
16954;SDS011;8594;52.052;8.354;2023-05-15T15:01:11;29.13;;;18.67;;
16954;SDS011;8594;52.052;8.354;2023-05-15T15:03:38;47.23;;;27.07;;